Time;durP1;ratioP1;P1;durP2;ratioP2;P2;SDS_P1;SDS_P2;PMS_P1;PMS_P2;Temp;Humidity;BMP_temperature;BMP_pressure;BME280_temperature;BME280_humidity;BME280_pressure;Samples;Min_cycle;Max_cycle;Signal;HPM_P1;HPM_P2
2022/06/26 00:02:00;;;;;;;1.42;0.70;;;;;;;;;;8347640;28;20509;-60
2022/06/26 00:06:00;;;;;;;0.65;0.50;;;;;;;;;;8353039;28;20051;-62
2022/06/26 00:10:00;;;;;;;1.08;0.80;;;;;;;;;;8350496;28;20048;-61
2022/06/26 00:14:01;;;;;;;0.70;0.70;;;;;;;;;;8351131;28;20124;-60
2022/06/26 00:18:01;;;;;;;1.17;0.60;;;;;;;;;;8344712;28;20078;-60
2022/06/26 00:22:05;;;;;;;5.13;0.80;;;;;;;;;;8349434;28;20352;-61
2022/06/26 00:26:05;;;;;;;1.95;0.80;;;;;;;;;;8351943;28;20981;-60
2022/06/26 00:30:06;;;;;;;1.30;0.70;;;;;;;;;;8353424;28;20044;-61
2022/06/26 00:34:06;;;;;;;0.73;0.70;;;;;;;;;;8348700;28;20507;-60
2022/06/26 00:38:06;;;;;;;0.60;0.60;;;;;;;;;;8350487;28;20039;-61
2022/06/26 00:42:07;;;;;;;0.60;0.60;;;;;;;;;;8348942;28;20037;-60
2022/06/26 00:46:07;;;;;;;1.10;0.70;;;;;;;;;;8353283;28;20043;-60
2022/06/26 00:50:08;;;;;;;1.08;0.65;;;;;;;;;;8349323;28;20031;-60
2022/06/26 00:54:08;;;;;;;1.13;0.80;;;;;;;;;;8346833;28;20059;-60
2022/06/26 00:58:09;;;;;;;3.53;0.70;;;;;;;;;;8343305;28;20040;-60
2022/06/26 01:02:09;;;;;;;1.80;0.88;;;;;;;;;;8344694;28;20033;-60
2022/06/26 01:06:10;;;;;;;0.70;0.70;;;;;;;;;;8340427;28;20435;-60
2022/06/26 01:10:11;;;;;;;2.28;0.60;;;;;;;;;;8343625;28;20025;-60
2022/06/26 01:14:11;;;;;;;1.08;0.80;;;;;;;;;;8341723;28;20477;-61
2022/06/26 01:18:12;;;;;;;5.35;0.77;;;;;;;;;;8339955;28;20036;-61
2022/06/26 01:22:12;;;;;;;1.88;0.80;;;;;;;;;;8346244;28;20316;-61
2022/06/26 01:26:12;;;;;;;4.53;0.90;;;;;;;;;;8343886;28;20024;-61
2022/06/26 01:30:12;;;;;;;4.40;0.90;;;;;;;;;;8344053;28;20394;-61
2022/06/26 01:34:13;;;;;;;0.70;0.70;;;;;;;;;;8343991;28;20020;-60
2022/06/26 01:38:22;;;;;;;0.60;0.60;;;;;;;;;;8346458;28;20470;-60
2022/06/26 01:42:23;;;;;;;1.60;0.80;;;;;;;;;;8345245;28;20032;-61
2022/06/26 01:46:23;;;;;;;1.05;0.82;;;;;;;;;;8345086;28;20151;-60
2022/06/26 01:50:24;;;;;;;0.73;0.73;;;;;;;;;;8344973;28;20481;-60
2022/06/26 01:54:24;;;;;;;3.07;0.70;;;;;;;;;;8345811;28;20075;-61
2022/06/26 01:58:24;;;;;;;1.65;0.90;;;;;;;;;;8348672;28;20035;-60
2022/06/26 02:02:24;;;;;;;1.25;0.90;;;;;;;;;;8349904;28;20083;-60
2022/06/26 02:06:26;;;;;;;2.72;0.90;;;;;;;;;;8351276;28;20823;-60
2022/06/26 02:14:46;;;;;;;1.85;1.00;;;;;;;;;;8349922;28;20382;-60
2022/06/26 02:18:47;;;;;;;2.15;1.08;;;;;;;;;;8350819;28;20033;-61
2022/06/26 02:22:48;;;;;;;0.90;0.90;;;;;;;;;;8351410;28;20458;-60
2022/06/26 02:26:48;;;;;;;1.27;0.93;;;;;;;;;;8353027;28;20386;-61
2022/06/26 02:30:49;;;;;;;1.80;0.80;;;;;;;;;;8352374;28;20028;-60
2022/06/26 02:34:49;;;;;;;0.77;0.77;;;;;;;;;;8357935;28;20556;-61
2022/06/26 02:38:49;;;;;;;1.77;0.82;;;;;;;;;;8351842;28;20133;-60
2022/06/26 02:42:49;;;;;;;3.38;0.90;;;;;;;;;;8355145;28;20028;-60
2022/06/26 02:46:50;;;;;;;0.93;0.73;;;;;;;;;;8352855;28;20072;-60
2022/06/26 02:50:50;;;;;;;1.13;0.80;;;;;;;;;;8351338;28;20023;-61
2022/06/26 02:54:50;;;;;;;0.80;0.80;;;;;;;;;;8348415;28;20033;-61
2022/06/26 02:58:51;;;;;;;1.65;0.70;;;;;;;;;;8354080;28;20078;-60
2022/06/26 03:02:51;;;;;;;1.52;0.80;;;;;;;;;;8351691;28;20052;-60
2022/06/26 03:06:51;;;;;;;0.87;0.80;;;;;;;;;;8354199;28;20021;-60
2022/06/26 03:10:51;;;;;;;1.23;0.90;;;;;;;;;;8352869;28;20320;-60
2022/06/26 03:14:52;;;;;;;1.17;0.80;;;;;;;;;;8355848;28;20020;-60
2022/06/26 03:18:52;;;;;;;0.82;0.80;;;;;;;;;;8356311;28;20264;-60
2022/06/26 03:22:52;;;;;;;2.33;1.05;;;;;;;;;;8356522;28;20032;-61
2022/06/26 03:26:52;;;;;;;1.10;1.00;;;;;;;;;;8355983;28;20033;-60
2022/06/26 03:30:53;;;;;;;0.70;0.70;;;;;;;;;;8354876;28;20692;-61
2022/06/26 03:34:53;;;;;;;0.90;0.85;;;;;;;;;;8355326;28;20025;-60
2022/06/26 03:38:53;;;;;;;2.33;0.82;;;;;;;;;;8355121;28;20515;-60
2022/06/26 03:42:53;;;;;;;1.50;0.90;;;;;;;;;;8353615;28;20491;-61
2022/06/26 03:46:54;;;;;;;1.07;0.80;;;;;;;;;;8354987;28;20045;-60
2022/06/26 03:50:54;;;;;;;1.40;1.00;;;;;;;;;;8354194;28;20032;-61
2022/06/26 03:54:55;;;;;;;1.52;1.05;;;;;;;;;;8350233;28;20623;-60
2022/06/26 03:58:55;;;;;;;0.70;0.70;;;;;;;;;;8355030;28;20032;-60
2022/06/26 04:02:55;;;;;;;1.15;1.00;;;;;;;;;;8350130;28;20208;-60
2022/06/26 04:06:55;;;;;;;0.82;0.80;;;;;;;;;;8354146;28;20469;-61
2022/06/26 04:10:55;;;;;;;1.80;0.90;;;;;;;;;;8352544;28;20765;-60
2022/06/26 04:14:56;;;;;;;4.20;1.10;;;;;;;;;;8354639;28;20628;-60
2022/06/26 04:18:56;;;;;;;1.08;0.90;;;;;;;;;;8352074;28;20541;-61
2022/06/26 04:23:00;;;;;;;1.63;0.80;;;;;;;;;;8353601;28;20498;-61
2022/06/26 04:27:01;;;;;;;0.95;0.90;;;;;;;;;;8352732;28;20170;-60
2022/06/26 04:31:01;;;;;;;1.25;0.90;;;;;;;;;;8354887;28;20033;-61
2022/06/26 04:35:01;;;;;;;0.77;0.77;;;;;;;;;;8352030;28;20285;-61
2022/06/26 04:39:02;;;;;;;1.25;0.80;;;;;;;;;;8351736;28;20645;-60
2022/06/26 04:43:02;;;;;;;1.52;1.10;;;;;;;;;;8355646;28;20048;-60
2022/06/26 04:47:02;;;;;;;0.70;0.70;;;;;;;;;;8354560;28;20405;-60
2022/06/26 04:51:02;;;;;;;1.80;0.90;;;;;;;;;;8359059;28;20603;-61
2022/06/26 04:55:03;;;;;;;2.20;1.08;;;;;;;;;;8352998;28;20052;-60
2022/06/26 04:59:03;;;;;;;1.13;1.00;;;;;;;;;;8353443;28;20025;-61
2022/06/26 05:03:03;;;;;;;1.15;0.90;;;;;;;;;;8355181;28;20089;-61
2022/06/26 05:07:04;;;;;;;4.68;0.90;;;;;;;;;;8354191;28;20032;-61
2022/06/26 05:11:04;;;;;;;1.75;0.98;;;;;;;;;;8354975;28;20029;-61
2022/06/26 05:15:05;;;;;;;0.80;0.80;;;;;;;;;;8354475;28;20028;-60
2022/06/26 05:19:05;;;;;;;0.90;0.80;;;;;;;;;;8352759;28;20052;-60
2022/06/26 05:23:07;;;;;;;1.00;0.82;;;;;;;;;;8352850;28;20040;-61
2022/06/26 05:27:07;;;;;;;0.98;0.90;;;;;;;;;;8352892;28;20820;-61
2022/06/26 05:31:09;;;;;;;3.33;1.20;;;;;;;;;;8352497;28;20108;-61
2022/06/26 05:35:09;;;;;;;0.93;0.90;;;;;;;;;;8352814;28;20020;-61
2022/06/26 05:39:09;;;;;;;1.27;0.90;;;;;;;;;;8351896;28;20027;-61
2022/06/26 05:43:10;;;;;;;1.95;1.00;;;;;;;;;;8349927;28;20028;-61
2022/06/26 05:47:10;;;;;;;0.80;0.80;;;;;;;;;;8348045;28;20086;-61
2022/06/26 05:51:10;;;;;;;1.13;0.80;;;;;;;;;;8349680;28;20052;-61
2022/06/26 05:55:10;;;;;;;1.08;0.82;;;;;;;;;;8349313;28;20477;-62
2022/06/26 05:59:11;;;;;;;1.02;0.85;;;;;;;;;;8349890;28;20034;-61
2022/06/26 06:03:11;;;;;;;1.23;0.93;;;;;;;;;;8345706;28;20036;-60
2022/06/26 06:07:11;;;;;;;3.22;1.02;;;;;;;;;;8354712;28;20017;-61
2022/06/26 06:11:11;;;;;;;3.13;0.90;;;;;;;;;;8355668;28;20462;-61
2022/06/26 06:15:12;;;;;;;3.78;1.00;;;;;;;;;;8353698;28;20028;-61
2022/06/26 06:19:12;;;;;;;1.15;0.93;;;;;;;;;;8353964;28;20017;-61
2022/06/26 06:23:12;;;;;;;1.52;0.90;;;;;;;;;;8355451;28;20397;-61
2022/06/26 06:27:12;;;;;;;1.77;1.10;;;;;;;;;;8354627;28;20504;-61
2022/06/26 06:31:13;;;;;;;1.20;1.10;;;;;;;;;;8354588;28;20803;-62
2022/06/26 06:35:13;;;;;;;2.07;0.93;;;;;;;;;;8348252;28;20051;-60
2022/06/26 06:39:14;;;;;;;2.70;1.00;;;;;;;;;;8346087;28;20028;-61
2022/06/26 06:43:14;;;;;;;1.23;1.10;;;;;;;;;;8346490;28;20392;-61
2022/06/26 06:47:14;;;;;;;1.65;1.00;;;;;;;;;;8345038;28;20075;-61
2022/06/26 06:51:14;;;;;;;2.70;0.97;;;;;;;;;;8346968;28;20128;-61
2022/06/26 06:55:14;;;;;;;1.10;0.95;;;;;;;;;;8342049;28;20021;-60
2022/06/26 06:59:15;;;;;;;1.70;1.00;;;;;;;;;;8343367;28;20377;-61
2022/06/26 07:03:15;;;;;;;2.03;0.80;;;;;;;;;;8344496;28;20078;-60
2022/06/26 07:07:15;;;;;;;1.10;1.00;;;;;;;;;;8347026;28;20020;-61
2022/06/26 07:11:16;;;;;;;1.10;1.00;;;;;;;;;;8343003;28;20497;-60
2022/06/26 07:15:16;;;;;;;3.17;1.20;;;;;;;;;;8345813;28;20318;-61
2022/06/26 07:19:16;;;;;;;1.63;0.90;;;;;;;;;;8344168;28;20443;-60
2022/06/26 07:23:16;;;;;;;2.17;0.90;;;;;;;;;;8345512;28;20426;-61
2022/06/26 07:27:17;;;;;;;2.15;1.20;;;;;;;;;;8345892;28;20394;-60
2022/06/26 07:31:17;;;;;;;1.52;0.90;;;;;;;;;;8344207;28;20768;-61
2022/06/26 07:35:17;;;;;;;0.93;0.80;;;;;;;;;;8346705;28;20025;-61
2022/06/26 07:39:18;;;;;;;1.33;0.80;;;;;;;;;;8345206;28;20386;-60
2022/06/26 07:43:18;;;;;;;1.52;0.80;;;;;;;;;;8346857;28;20032;-62
2022/06/26 07:47:19;;;;;;;0.70;0.70;;;;;;;;;;8342919;28;20032;-61
2022/06/26 07:51:19;;;;;;;0.95;0.77;;;;;;;;;;8345199;28;20036;-61
2022/06/26 07:55:19;;;;;;;1.98;0.90;;;;;;;;;;8343036;28;20026;-60
2022/06/26 07:59:19;;;;;;;1.67;0.82;;;;;;;;;;8344354;28;20137;-60
2022/06/26 08:03:19;;;;;;;0.80;0.80;;;;;;;;;;8343374;28;20581;-60
2022/06/26 08:07:20;;;;;;;0.60;0.60;;;;;;;;;;8346047;28;20539;-61
2022/06/26 08:11:20;;;;;;;2.50;0.70;;;;;;;;;;8344049;28;20525;-61
2022/06/26 08:15:20;;;;;;;1.13;0.60;;;;;;;;;;8342587;28;20425;-61
2022/06/26 08:19:20;;;;;;;1.30;0.70;;;;;;;;;;8343723;28;20913;-60
2022/06/26 08:23:21;;;;;;;1.30;0.80;;;;;;;;;;8346144;28;21090;-60
2022/06/26 08:27:21;;;;;;;1.88;0.65;;;;;;;;;;8343728;28;20025;-60
2022/06/26 08:31:22;;;;;;;2.67;0.75;;;;;;;;;;8343372;28;20037;-61
2022/06/26 08:35:22;;;;;;;2.33;0.73;;;;;;;;;;8346051;28;20023;-62
2022/06/26 08:39:23;;;;;;;0.60;0.60;;;;;;;;;;8342779;28;20024;-61
2022/06/26 08:43:23;;;;;;;3.90;0.80;;;;;;;;;;8345276;28;20027;-61
2022/06/26 08:47:24;;;;;;;2.07;0.97;;;;;;;;;;8341547;28;20036;-61
2022/06/26 08:51:25;;;;;;;1.07;0.80;;;;;;;;;;8343809;28;20116;-61
2022/06/26 08:55:25;;;;;;;0.67;0.60;;;;;;;;;;8343755;28;20053;-60
2022/06/26 08:59:27;;;;;;;0.70;0.70;;;;;;;;;;8343521;28;20021;-61
2022/06/26 09:03:27;;;;;;;;;;;;;;;;;;8343319;28;20064;-60
2022/06/26 09:07:27;;;;;;;1.17;0.70;;;;;;;;;;8344561;28;20428;-60
2022/06/26 09:11:36;;;;;;;0.70;0.70;;;;;;;;;;8341992;28;20830;-61
2022/06/26 09:15:38;;;;;;;1.40;0.70;;;;;;;;;;8342498;28;20286;-60
2022/06/26 09:19:41;;;;;;;1.08;0.47;;;;;;;;;;8343436;28;20025;-61
2022/06/26 09:23:51;;;;;;;0.85;0.70;;;;;;;;;;8343172;28;20035;-61
2022/06/26 09:27:51;;;;;;;0.50;0.50;;;;;;;;;;8344103;28;20028;-61
2022/06/26 09:31:52;;;;;;;0.50;0.50;;;;;;;;;;8341191;28;20068;-61
2022/06/26 09:35:52;;;;;;;1.20;0.70;;;;;;;;;;8343183;28;20255;-60
2022/06/26 09:40:13;;;;;;;0.60;0.60;;;;;;;;;;8343764;28;20462;-60
2022/06/26 09:44:17;;;;;;;0.70;0.70;;;;;;;;;;8349431;28;20505;-61
2022/06/26 09:48:17;;;;;;;0.60;0.60;;;;;;;;;;8348019;28;20060;-60
2022/06/26 09:52:19;;;;;;;1.35;0.60;;;;;;;;;;8348550;28;20016;-60
2022/06/26 09:56:20;;;;;;;0.63;0.50;;;;;;;;;;8349237;28;20008;-60
2022/06/26 10:00:20;;;;;;;1.43;0.60;;;;;;;;;;8347372;28;20020;-61
2022/06/26 10:08:42;;;;;;;0.75;0.70;;;;;;;;;;8349950;28;20290;-61
2022/06/26 10:12:42;;;;;;;0.80;0.80;;;;;;;;;;8346708;28;20496;-60
2022/06/26 10:16:51;;;;;;;1.05;0.50;;;;;;;;;;8348210;28;20052;-60
2022/06/26 10:20:52;;;;;;;0.70;0.70;;;;;;;;;;8347065;28;20040;-60
2022/06/26 10:24:55;;;;;;;0.77;0.70;;;;;;;;;;8348082;28;20025;-61
2022/06/26 10:28:56;;;;;;;0.82;0.73;;;;;;;;;;8347837;28;20447;-60
2022/06/26 10:33:06;;;;;;;0.85;0.60;;;;;;;;;;8348488;28;21214;-60
2022/06/26 10:37:10;;;;;;;0.65;0.65;;;;;;;;;;8347267;28;20031;-61
2022/06/26 10:45:35;;;;;;;0.70;0.70;;;;;;;;;;8347753;28;20460;-60
2022/06/26 10:49:44;;;;;;;0.60;0.60;;;;;;;;;;8348489;28;20613;-60
2022/06/26 10:53:45;;;;;;;0.68;0.68;;;;;;;;;;8346277;28;20028;-60
2022/06/26 10:57:45;;;;;;;1.75;0.80;;;;;;;;;;8347124;28;20021;-60
2022/06/26 11:01:45;;;;;;;2.13;0.70;;;;;;;;;;8345335;28;20516;-60
2022/06/26 11:06:05;;;;;;;1.40;0.70;;;;;;;;;;8347375;28;20090;-60
2022/06/26 11:10:08;;;;;;;0.70;0.70;;;;;;;;;;8350103;28;20031;-60
2022/06/26 11:14:08;;;;;;;0.50;0.50;;;;;;;;;;8346446;28;20021;-61
2022/06/26 11:18:09;;;;;;;1.75;0.60;;;;;;;;;;8345349;28;20078;-60
2022/06/26 11:22:11;;;;;;;0.60;0.60;;;;;;;;;;8345481;28;20079;-60
2022/06/26 11:26:13;;;;;;;2.77;0.60;;;;;;;;;;8345938;28;20101;-61
2022/06/26 11:30:18;;;;;;;0.70;0.70;;;;;;;;;;8346666;28;20021;-60
2022/06/26 11:34:20;;;;;;;0.90;0.80;;;;;;;;;;8345049;28;20576;-60
2022/06/26 11:38:20;;;;;;;0.60;0.60;;;;;;;;;;8346980;28;20469;-60
2022/06/26 11:42:23;;;;;;;1.10;0.60;;;;;;;;;;8345766;28;20643;-60
2022/06/26 11:46:24;;;;;;;2.58;0.60;;;;;;;;;;8345257;28;20128;-60
2022/06/26 11:50:27;;;;;;;0.73;0.70;;;;;;;;;;8345019;28;20131;-61
2022/06/26 11:54:27;;;;;;;0.65;0.65;;;;;;;;;;8346687;28;20452;-60
2022/06/26 11:58:29;;;;;;;0.80;0.80;;;;;;;;;;8345332;28;20401;-60
2022/06/26 12:02:29;;;;;;;0.90;0.60;;;;;;;;;;8344602;28;20585;-60
2022/06/26 12:06:29;;;;;;;0.73;0.73;;;;;;;;;;8342592;28;20061;-60
2022/06/26 12:10:35;;;;;;;0.82;0.82;;;;;;;;;;8343783;28;20032;-60
2022/06/26 12:14:43;;;;;;;0.93;0.70;;;;;;;;;;8343117;28;20090;-60
2022/06/26 12:18:43;;;;;;;0.70;0.70;;;;;;;;;;8344061;28;20070;-60
2022/06/26 12:22:48;;;;;;;2.88;0.73;;;;;;;;;;8362568;28;20548;-60
2022/06/26 12:26:48;;;;;;;1.50;1.00;;;;;;;;;;8345485;28;20467;-60
2022/06/26 12:30:49;;;;;;;0.80;0.80;;;;;;;;;;8343434;28;20069;-60
2022/06/26 12:34:49;;;;;;;0.95;0.85;;;;;;;;;;8344800;28;20020;-60
2022/06/26 12:38:49;;;;;;;0.90;0.80;;;;;;;;;;8344746;28;20694;-60
2022/06/26 12:42:50;;;;;;;3.15;1.00;;;;;;;;;;8344992;28;20024;-60
2022/06/26 12:46:50;;;;;;;0.80;0.80;;;;;;;;;;8345078;28;20037;-60
2022/06/26 12:50:50;;;;;;;0.90;0.90;;;;;;;;;;8342366;28;20100;-60
2022/06/26 12:54:50;;;;;;;0.80;0.80;;;;;;;;;;8343165;28;20025;-61
2022/06/26 12:58:51;;;;;;;0.90;0.90;;;;;;;;;;8344842;28;20119;-60
2022/06/26 13:02:51;;;;;;;1.53;0.90;;;;;;;;;;8342088;28;20493;-61
2022/06/26 13:06:51;;;;;;;1.92;0.80;;;;;;;;;;8343098;28;20048;-61
2022/06/26 13:10:52;;;;;;;2.92;0.70;;;;;;;;;;8342847;28;20071;-61
2022/06/26 13:14:52;;;;;;;0.70;0.70;;;;;;;;;;8341202;28;20397;-60
2022/06/26 13:18:53;;;;;;;0.77;0.77;;;;;;;;;;8344445;28;20654;-61
2022/06/26 13:22:53;;;;;;;1.13;0.80;;;;;;;;;;8341409;28;20040;-60
2022/06/26 13:26:55;;;;;;;1.50;0.80;;;;;;;;;;8343737;28;20028;-61
2022/06/26 13:30:55;;;;;;;1.30;0.90;;;;;;;;;;8343104;28;20457;-61
2022/06/26 13:34:55;;;;;;;1.08;0.90;;;;;;;;;;8341724;28;20027;-61
2022/06/26 13:38:55;;;;;;;2.10;0.82;;;;;;;;;;8344938;28;21387;-61
2022/06/26 13:42:55;;;;;;;0.80;0.80;;;;;;;;;;8342425;28;20033;-60
2022/06/26 13:46:56;;;;;;;0.70;0.70;;;;;;;;;;8341308;28;20860;-60
2022/06/26 13:50:56;;;;;;;1.10;1.00;;;;;;;;;;8344533;28;20017;-60
2022/06/26 13:54:56;;;;;;;1.23;1.00;;;;;;;;;;8341485;28;20039;-61
2022/06/26 13:58:56;;;;;;;1.48;1.00;;;;;;;;;;8341169;28;22201;-61
2022/06/26 14:02:56;;;;;;;2.35;1.00;;;;;;;;;;8342170;28;20036;-61
2022/06/26 14:06:57;;;;;;;1.27;1.05;;;;;;;;;;8341474;28;20036;-60
2022/06/26 14:10:57;;;;;;;1.00;1.00;;;;;;;;;;8340063;28;20120;-60
2022/06/26 14:14:57;;;;;;;0.90;0.90;;;;;;;;;;8342887;28;20725;-62
2022/06/26 14:18:58;;;;;;;2.08;1.10;;;;;;;;;;8340497;28;20113;-61
2022/06/26 14:27:17;;;;;;;1.00;1.00;;;;;;;;;;8344540;28;20090;-60
2022/06/26 14:31:17;;;;;;;2.25;1.00;;;;;;;;;;8346142;28;20033;-60
2022/06/26 14:35:17;;;;;;;2.33;0.82;;;;;;;;;;8348149;28;20032;-60
2022/06/26 14:39:17;;;;;;;3.33;0.90;;;;;;;;;;8347219;28;20777;-60
2022/06/26 14:43:18;;;;;;;1.38;1.00;;;;;;;;;;8347657;28;20020;-61
2022/06/26 14:47:18;;;;;;;2.87;0.93;;;;;;;;;;8348632;28;20051;-60
2022/06/26 14:51:18;;;;;;;1.23;1.00;;;;;;;;;;8344834;28;20094;-60
2022/06/26 14:55:19;;;;;;;1.52;1.00;;;;;;;;;;8347578;28;20028;-60
2022/06/26 14:59:19;;;;;;;1.50;1.00;;;;;;;;;;8349264;28;20031;-60
2022/06/26 15:03:19;;;;;;;1.38;0.90;;;;;;;;;;8346504;28;20037;-60
2022/06/26 15:07:19;;;;;;;0.80;0.80;;;;;;;;;;8348852;28;20974;-61
2022/06/26 15:11:20;;;;;;;0.70;0.70;;;;;;;;;;8346613;28;20059;-60
2022/06/26 15:15:21;;;;;;;1.60;0.80;;;;;;;;;;8340129;28;20020;-61
2022/06/26 15:19:21;;;;;;;1.60;0.80;;;;;;;;;;8347090;28;20435;-61
2022/06/26 15:23:21;;;;;;;2.05;0.80;;;;;;;;;;8345487;28;20056;-61
2022/06/26 15:27:22;;;;;;;1.25;0.90;;;;;;;;;;8345177;28;20032;-60
2022/06/26 15:31:22;;;;;;;1.45;0.90;;;;;;;;;;8346266;28;20032;-60
2022/06/26 15:35:22;;;;;;;0.80;0.80;;;;;;;;;;8345210;28;20523;-60
2022/06/26 15:39:22;;;;;;;0.98;0.80;;;;;;;;;;8346943;28;20052;-60
2022/06/26 15:43:23;;;;;;;0.88;0.88;;;;;;;;;;8346701;28;20424;-60
2022/06/26 15:47:23;;;;;;;0.95;0.95;;;;;;;;;;8345922;28;20079;-60
2022/06/26 15:51:24;;;;;;;2.15;0.95;;;;;;;;;;8345907;28;20094;-60
2022/06/26 15:55:26;;;;;;;2.30;0.90;;;;;;;;;;8345615;28;20024;-60
2022/06/26 15:59:27;;;;;;;3.67;1.10;;;;;;;;;;8346168;28;20016;-61
2022/06/26 16:03:27;;;;;;;0.90;0.90;;;;;;;;;;8345075;28;20071;-60
2022/06/26 16:07:27;;;;;;;1.75;0.93;;;;;;;;;;8342345;28;20035;-60
2022/06/26 16:11:27;;;;;;;0.90;0.90;;;;;;;;;;8345236;28;20016;-60
2022/06/26 16:15:27;;;;;;;1.02;0.95;;;;;;;;;;8344273;28;20101;-60
2022/06/26 16:19:28;;;;;;;1.92;0.90;;;;;;;;;;8344213;28;20078;-61
2022/06/26 16:27:47;;;;;;;1.70;0.90;;;;;;;;;;8341047;28;20162;-61
2022/06/26 16:31:47;;;;;;;1.38;0.90;;;;;;;;;;8342393;28;20033;-60
2022/06/26 16:35:47;;;;;;;1.67;0.85;;;;;;;;;;8343680;28;20012;-60
2022/06/26 16:39:48;;;;;;;1.90;0.80;;;;;;;;;;8341326;28;20181;-61
2022/06/26 16:43:48;;;;;;;0.80;0.80;;;;;;;;;;8342223;28;20063;-60
2022/06/26 16:47:48;;;;;;;1.25;0.90;;;;;;;;;;8340073;28;20416;-60
2022/06/26 16:51:49;;;;;;;3.50;0.90;;;;;;;;;;8341137;28;20250;-60
2022/06/26 16:55:52;;;;;;;1.10;0.90;;;;;;;;;;8342851;28;20612;-61
2022/06/26 16:59:52;;;;;;;1.08;0.90;;;;;;;;;;8341255;28;20078;-60
2022/06/26 17:03:52;;;;;;;1.65;0.90;;;;;;;;;;8340447;28;20037;-60
2022/06/26 17:07:53;;;;;;;1.00;0.90;;;;;;;;;;8342453;28;20025;-60
2022/06/26 17:11:53;;;;;;;2.28;1.00;;;;;;;;;;8341814;28;20032;-60
2022/06/26 17:15:53;;;;;;;0.80;0.80;;;;;;;;;;8343126;28;20353;-60
2022/06/26 17:19:55;;;;;;;2.42;1.00;;;;;;;;;;8340934;28;20106;-59
2022/06/26 17:23:57;;;;;;;0.82;0.77;;;;;;;;;;8342676;28;20028;-60
2022/06/26 17:27:57;;;;;;;1.42;0.73;;;;;;;;;;8340743;28;20036;-61
2022/06/26 17:31:58;;;;;;;0.80;0.80;;;;;;;;;;8341740;28;20029;-59
2022/06/26 17:35:58;;;;;;;0.90;0.90;;;;;;;;;;8341501;28;20457;-60
2022/06/26 17:39:58;;;;;;;1.38;0.90;;;;;;;;;;8342743;28;20431;-60
2022/06/26 17:44:03;;;;;;;0.95;0.88;;;;;;;;;;8340452;28;20024;-60
2022/06/26 17:48:03;;;;;;;2.15;0.93;;;;;;;;;;8340820;28;20040;-60
2022/06/26 17:52:04;;;;;;;0.80;0.80;;;;;;;;;;8341316;28;20016;-60
2022/06/26 17:56:04;;;;;;;1.00;0.88;;;;;;;;;;8341233;28;20016;-59
2022/06/26 18:00:05;;;;;;;0.80;0.80;;;;;;;;;;8340143;28;20032;-61
2022/06/26 18:04:05;;;;;;;2.83;1.00;;;;;;;;;;8346589;28;20077;-60
2022/06/26 18:08:06;;;;;;;2.65;1.00;;;;;;;;;;8348047;28;20119;-60
2022/06/26 18:12:07;;;;;;;1.10;0.90;;;;;;;;;;8346558;28;20024;-60
2022/06/26 18:16:08;;;;;;;0.88;0.85;;;;;;;;;;8345842;28;20389;-59
2022/06/26 18:20:10;;;;;;;1.25;0.90;;;;;;;;;;8343826;28;20023;-60
2022/06/26 18:24:10;;;;;;;0.80;0.80;;;;;;;;;;8346204;28;20037;-60
2022/06/26 18:28:10;;;;;;;0.80;0.80;;;;;;;;;;8345893;28;20030;-59
2022/06/26 18:32:10;;;;;;;1.15;0.90;;;;;;;;;;8344925;28;20135;-59
2022/06/26 18:36:11;;;;;;;0.90;0.90;;;;;;;;;;8344925;28;20031;-60
2022/06/26 18:40:13;;;;;;;0.88;0.88;;;;;;;;;;8342946;28;20020;-60
2022/06/26 18:44:13;;;;;;;1.75;1.00;;;;;;;;;;8337623;28;20028;-59
2022/06/26 18:48:13;;;;;;;1.70;0.93;;;;;;;;;;8336950;28;20033;-60
2022/06/26 18:52:13;;;;;;;1.60;0.90;;;;;;;;;;8329674;28;20012;-59
2022/06/26 18:56:13;;;;;;;2.05;0.90;;;;;;;;;;8345221;28;20011;-60
2022/06/26 19:00:15;;;;;;;0.90;0.90;;;;;;;;;;8344701;28;20044;-60
2022/06/26 19:04:15;;;;;;;1.05;0.95;;;;;;;;;;8339834;28;20063;-59
2022/06/26 19:08:15;;;;;;;1.67;1.00;;;;;;;;;;8341278;28;20029;-60
2022/06/26 19:16:34;;;;;;;1.50;1.10;;;;;;;;;;8338212;28;20067;-60
2022/06/26 19:20:35;;;;;;;2.35;1.13;;;;;;;;;;8346328;28;20028;-60
2022/06/26 19:24:35;;;;;;;1.08;0.90;;;;;;;;;;8347164;28;20024;-60
2022/06/26 19:28:36;;;;;;;0.85;0.85;;;;;;;;;;8342993;28;20027;-60
2022/06/26 19:32:37;;;;;;;1.45;1.10;;;;;;;;;;8343271;28;20593;-60
2022/06/26 19:36:39;;;;;;;1.35;1.00;;;;;;;;;;8346989;28;20110;-60
2022/06/26 19:40:39;;;;;;;1.50;1.20;;;;;;;;;;8346152;28;20566;-61
2022/06/26 19:44:39;;;;;;;1.60;1.10;;;;;;;;;;8345367;28;20029;-60
2022/06/26 19:48:40;;;;;;;1.13;1.07;;;;;;;;;;8343192;28;20146;-60
2022/06/26 19:52:44;;;;;;;2.05;1.10;;;;;;;;;;8340953;28;20065;-59
2022/06/26 19:56:45;;;;;;;1.98;1.08;;;;;;;;;;8345602;28;20020;-59
2022/06/26 20:00:46;;;;;;;1.77;1.30;;;;;;;;;;8343291;28;20036;-60
2022/06/26 20:04:46;;;;;;;1.20;1.10;;;;;;;;;;8345863;28;20103;-60
2022/06/26 20:08:47;;;;;;;1.25;1.10;;;;;;;;;;8344146;28;20071;-60
2022/06/26 20:12:47;;;;;;;1.63;1.17;;;;;;;;;;8344658;28;20048;-60
2022/06/26 20:16:48;;;;;;;1.58;1.08;;;;;;;;;;8342958;28;20028;-60
2022/06/26 20:20:48;;;;;;;2.08;1.30;;;;;;;;;;8340841;28;20105;-59
2022/06/26 20:24:50;;;;;;;1.35;1.30;;;;;;;;;;8344865;28;20056;-60
2022/06/26 20:28:50;;;;;;;1.25;1.20;;;;;;;;;;8345122;28;20794;-60
2022/06/26 20:32:50;;;;;;;1.30;1.20;;;;;;;;;;8342433;28;20609;-60
2022/06/26 20:36:51;;;;;;;1.40;1.30;;;;;;;;;;8345702;28;20467;-59
2022/06/26 20:40:51;;;;;;;2.47;1.20;;;;;;;;;;8341860;28;20040;-60
2022/06/26 20:44:51;;;;;;;1.45;1.20;;;;;;;;;;8344448;28;20051;-60
2022/06/26 20:48:51;;;;;;;2.10;1.30;;;;;;;;;;8343439;28;20583;-60
2022/06/26 20:52:52;;;;;;;1.30;1.13;;;;;;;;;;8343327;28;20040;-60
2022/06/26 20:56:52;;;;;;;3.50;1.30;;;;;;;;;;8338931;28;20232;-59
2022/06/26 21:00:53;;;;;;;1.30;1.20;;;;;;;;;;8342812;28;20163;-60
2022/06/26 21:04:53;;;;;;;1.95;1.27;;;;;;;;;;8344078;28;20025;-60
2022/06/26 21:08:54;;;;;;;3.37;1.30;;;;;;;;;;8349990;28;20029;-61
2022/06/26 21:12:54;;;;;;;1.65;1.50;;;;;;;;;;8347058;28;20031;-59
2022/06/26 21:16:55;;;;;;;2.25;1.27;;;;;;;;;;8343252;28;20049;-60
2022/06/26 21:20:56;;;;;;;4.40;1.38;;;;;;;;;;8343193;28;20031;-59
2022/06/26 21:24:56;;;;;;;1.55;1.40;;;;;;;;;;8343781;28;20115;-60
2022/06/26 21:28:56;;;;;;;1.98;1.52;;;;;;;;;;8343259;28;20494;-60
2022/06/26 21:32:57;;;;;;;7.93;1.48;;;;;;;;;;8343120;28;21635;-60
2022/06/26 21:36:57;;;;;;;2.88;1.33;;;;;;;;;;8343735;28;20032;-59
2022/06/26 21:40:57;;;;;;;3.08;1.50;;;;;;;;;;8343806;28;20028;-60
2022/06/26 21:44:57;;;;;;;4.40;1.90;;;;;;;;;;8344698;28;20115;-60
2022/06/26 21:48:57;;;;;;;10.60;2.22;;;;;;;;;;8343759;28;20036;-60
2022/06/26 21:52:58;;;;;;;5.05;1.73;;;;;;;;;;8341558;28;20478;-61
2022/06/26 21:56:58;;;;;;;3.50;1.80;;;;;;;;;;8344372;28;20013;-60
2022/06/26 22:00:58;;;;;;;4.70;1.50;;;;;;;;;;8342563;28;20754;-60
2022/06/26 22:04:58;;;;;;;1.57;1.23;;;;;;;;;;8345077;28;20016;-64
2022/06/26 22:08:59;;;;;;;1.85;1.58;;;;;;;;;;8343138;28;20021;-60
2022/06/26 22:13:01;;;;;;;3.33;1.75;;;;;;;;;;8342711;28;20036;-60
2022/06/26 22:17:01;;;;;;;3.55;1.48;;;;;;;;;;8343382;28;20123;-60
2022/06/26 22:21:01;;;;;;;8.18;1.80;;;;;;;;;;8342215;28;20020;-60
2022/06/26 22:25:02;;;;;;;3.43;1.50;;;;;;;;;;8343283;28;20039;-60
2022/06/26 22:29:03;;;;;;;2.83;1.55;;;;;;;;;;8343304;28;20225;-60
2022/06/26 22:33:03;;;;;;;8.35;2.03;;;;;;;;;;8338941;28;20465;-60
2022/06/26 22:37:03;;;;;;;4.47;1.40;;;;;;;;;;8342366;28;20092;-60
2022/06/26 22:41:04;;;;;;;3.17;1.37;;;;;;;;;;8341446;28;20028;-62
2022/06/26 22:45:04;;;;;;;2.58;1.60;;;;;;;;;;8341542;28;21040;-61
2022/06/26 22:49:04;;;;;;;6.65;1.70;;;;;;;;;;8343313;28;20099;-61
2022/06/26 22:53:05;;;;;;;2.78;1.50;;;;;;;;;;8348403;28;20013;-60
2022/06/26 22:57:05;;;;;;;5.23;1.50;;;;;;;;;;8346871;28;20199;-60
2022/06/26 23:01:05;;;;;;;1.80;1.40;;;;;;;;;;8347938;28;20219;-60
2022/06/26 23:05:06;;;;;;;3.70;1.27;;;;;;;;;;8348985;28;20063;-60
2022/06/26 23:09:06;;;;;;;4.00;1.40;;;;;;;;;;8349105;28;20383;-60
2022/06/26 23:13:06;;;;;;;5.28;1.40;;;;;;;;;;8350555;28;20563;-61
2022/06/26 23:17:07;;;;;;;6.88;1.35;;;;;;;;;;8347743;28;20622;-60
2022/06/26 23:21:07;;;;;;;2.75;1.35;;;;;;;;;;8349961;28;20024;-61
2022/06/26 23:25:08;;;;;;;1.77;1.23;;;;;;;;;;8354276;28;20473;-60
2022/06/26 23:29:09;;;;;;;2.10;1.30;;;;;;;;;;8352758;28;20257;-60
2022/06/26 23:33:09;;;;;;;2.38;1.30;;;;;;;;;;8354214;28;20043;-61
2022/06/26 23:37:09;;;;;;;1.95;1.20;;;;;;;;;;8354069;28;20075;-60
2022/06/26 23:41:09;;;;;;;9.43;1.40;;;;;;;;;;8352774;28;20058;-60
2022/06/26 23:45:10;;;;;;;3.73;1.50;;;;;;;;;;8353083;28;20104;-61
2022/06/26 23:49:10;;;;;;;6.80;1.23;;;;;;;;;;8351516;28;20029;-60
2022/06/26 23:53:10;;;;;;;2.00;1.30;;;;;;;;;;8353904;28;20678;-61
2022/06/26 23:57:11;;;;;;;3.65;1.33;;;;;;;;;;8353287;28;20077;-61
